createdAt,value
2023-05-02T00:00:18.045Z,35.53
2023-05-02T00:01:18.026Z,35.46
2023-05-02T00:02:18.083Z,35.48
2023-05-02T00:03:18.091Z,35.45
2023-05-02T00:04:18.125Z,35.49
2023-05-02T00:05:17.993Z,35.51
2023-05-02T00:06:18.018Z,35.50
2023-05-02T00:07:17.958Z,35.50
2023-05-02T00:08:18.016Z,35.49
2023-05-02T00:09:17.971Z,35.53
2023-05-02T00:10:17.960Z,35.52
2023-05-02T00:11:17.963Z,35.49
2023-05-02T00:12:17.926Z,35.53
2023-05-02T00:13:17.926Z,35.48
2023-05-02T00:14:17.962Z,35.55
2023-05-02T00:15:17.958Z,35.49
2023-05-02T00:16:17.915Z,35.49
2023-05-02T00:17:18.043Z,35.49
2023-05-02T00:18:17.954Z,35.55
2023-05-02T00:19:17.917Z,35.53
2023-05-02T00:20:17.966Z,35.55
2023-05-02T00:21:17.902Z,35.56
2023-05-02T00:22:17.879Z,35.53
2023-05-02T00:23:17.896Z,35.55
2023-05-02T00:24:17.849Z,35.48
2023-05-02T00:25:17.853Z,35.53
2023-05-02T00:26:17.830Z,35.50
2023-05-02T00:27:17.856Z,35.50
2023-05-02T00:28:17.833Z,35.53
2023-05-02T00:29:17.838Z,35.50
2023-05-02T00:30:17.829Z,35.53
2023-05-02T00:31:17.899Z,35.52
2023-05-02T00:32:17.822Z,35.55
2023-05-02T00:33:17.821Z,35.53
2023-05-02T00:34:17.803Z,35.53
2023-05-02T00:35:17.781Z,35.55
2023-05-02T00:36:17.783Z,35.53
2023-05-02T00:37:17.784Z,35.52
2023-05-02T00:38:17.746Z,35.56
2023-05-02T00:39:17.792Z,35.53
2023-05-02T00:40:17.752Z,35.55
2023-05-02T00:41:17.727Z,35.56
2023-05-02T00:42:17.769Z,35.55
2023-05-02T00:43:17.723Z,35.53
2023-05-02T00:44:17.707Z,35.56
2023-05-02T00:45:17.682Z,35.56
2023-05-02T00:46:17.810Z,35.55
2023-05-02T00:47:17.693Z,35.53
2023-05-02T00:48:17.763Z,35.57
2023-05-02T00:49:17.754Z,35.55
2023-05-02T00:50:17.827Z,35.53
2023-05-02T00:51:17.848Z,35.57
2023-05-02T00:52:17.882Z,35.60
2023-05-02T00:53:17.893Z,35.55
2023-05-02T00:54:17.919Z,35.56
2023-05-02T00:55:17.952Z,35.51
2023-05-02T00:56:17.963Z,35.58
2023-05-02T00:57:17.981Z,35.61
2023-05-02T00:58:18.035Z,35.55
2023-05-02T00:59:18.115Z,35.60
2023-05-02T01:00:18.129Z,35.57
2023-05-02T01:01:18.146Z,35.60
2023-05-02T01:02:18.161Z,35.60
2023-05-02T01:03:18.276Z,35.58
2023-05-02T01:04:18.275Z,35.61
2023-05-02T01:05:18.226Z,35.61
2023-05-02T01:06:18.334Z,35.55
2023-05-02T01:07:18.265Z,35.64
2023-05-02T01:08:18.301Z,35.58
2023-05-02T01:09:18.356Z,35.60
2023-05-02T01:10:18.361Z,35.60
2023-05-02T01:11:18.398Z,35.57
2023-05-02T01:12:18.427Z,35.60
2023-05-02T01:13:18.409Z,35.55
2023-05-02T01:14:18.406Z,35.55
2023-05-02T01:15:18.419Z,35.61
2023-05-02T01:16:18.470Z,35.57
2023-05-02T01:17:18.396Z,35.55
2023-05-02T01:18:18.388Z,35.58
2023-05-02T01:19:18.429Z,35.60
2023-05-02T01:20:18.388Z,35.60
2023-05-02T01:21:18.389Z,35.58
2023-05-02T01:22:18.388Z,35.60
2023-05-02T01:23:18.350Z,35.58
2023-05-02T01:24:18.357Z,35.62
2023-05-02T01:25:18.321Z,35.57
2023-05-02T01:26:18.330Z,35.62
2023-05-02T01:27:18.324Z,35.60
2023-05-02T01:28:18.347Z,35.61
2023-05-02T01:29:18.380Z,35.65
2023-05-02T01:30:18.397Z,35.63
2023-05-02T01:31:18.567Z,35.61
2023-05-02T01:32:18.450Z,35.60
2023-05-02T01:33:18.480Z,35.61
2023-05-02T01:34:18.520Z,35.62
2023-05-02T01:35:18.566Z,35.63
2023-05-02T01:36:18.582Z,35.66
2023-05-02T01:37:18.640Z,35.60
2023-05-02T01:38:18.657Z,35.61
2023-05-02T01:39:18.700Z,35.61
2023-05-02T01:40:18.711Z,35.66
2023-05-02T01:41:18.748Z,35.60
2023-05-02T01:42:18.818Z,35.63
2023-05-02T01:43:18.833Z,35.61
2023-05-02T01:44:18.876Z,35.63
2023-05-02T01:45:18.920Z,35.66
2023-05-02T01:46:18.989Z,35.64
2023-05-02T01:47:19.044Z,35.60
2023-05-02T01:48:19.018Z,35.62
2023-05-02T01:49:19.064Z,35.64
2023-05-02T01:50:19.088Z,35.62
2023-05-02T01:51:19.136Z,35.63
2023-05-02T01:52:19.178Z,35.63
2023-05-02T01:53:19.216Z,35.68
2023-05-02T01:54:19.237Z,35.65
2023-05-02T01:55:19.270Z,35.65
2023-05-02T01:56:19.336Z,35.66
2023-05-02T01:57:19.340Z,35.66
2023-05-02T01:58:20.294Z,35.60
2023-05-02T01:59:19.398Z,35.69
2023-05-02T02:00:19.476Z,35.64
2023-05-02T02:01:19.696Z,35.65
2023-05-02T02:02:19.534Z,35.66
2023-05-02T02:03:19.631Z,35.60
2023-05-02T02:04:19.633Z,35.64
2023-05-02T02:05:19.598Z,35.60
2023-05-02T02:06:19.699Z,35.67
2023-05-02T02:07:19.690Z,35.66
2023-05-02T02:08:19.783Z,35.68
2023-05-02T02:09:19.802Z,35.66
2023-05-02T02:10:19.790Z,35.63
2023-05-02T02:11:19.819Z,35.60
2023-05-02T02:12:19.940Z,35.64
2023-05-02T02:13:19.903Z,35.64
2023-05-02T02:14:19.934Z,35.71
2023-05-02T02:15:19.972Z,35.68
2023-05-02T02:16:20.017Z,35.64
2023-05-02T02:17:20.054Z,35.64
2023-05-02T02:18:20.066Z,35.67
2023-05-02T02:19:20.130Z,35.68
2023-05-02T02:20:20.160Z,35.65
2023-05-02T02:21:20.216Z,35.66
2023-05-02T02:22:20.233Z,35.62
2023-05-02T02:23:20.254Z,35.67
2023-05-02T02:24:20.333Z,35.66
2023-05-02T02:25:20.339Z,35.71
2023-05-02T02:26:20.357Z,35.65
2023-05-02T02:27:20.403Z,35.66
2023-05-02T02:28:20.456Z,35.67
2023-05-02T02:29:20.467Z,35.67
2023-05-02T02:30:20.510Z,35.66
2023-05-02T02:31:20.635Z,35.64
2023-05-02T02:32:20.593Z,35.64
2023-05-02T02:33:20.619Z,35.60
2023-05-02T02:34:20.656Z,35.64
2023-05-02T02:35:20.723Z,35.63
2023-05-02T02:36:20.754Z,35.65
2023-05-02T02:37:20.774Z,35.63
2023-05-02T02:38:20.804Z,35.66
2023-05-02T02:39:20.865Z,35.64
2023-05-02T02:40:20.859Z,35.63
2023-05-02T02:41:20.921Z,35.63
2023-05-02T02:42:20.950Z,35.67
2023-05-02T02:43:20.986Z,35.66
2023-05-02T02:44:21.025Z,35.66
2023-05-02T02:45:21.116Z,35.64
2023-05-02T02:46:21.187Z,35.65
2023-05-02T02:47:21.144Z,35.63
2023-05-02T02:48:21.190Z,35.67
2023-05-02T02:49:21.224Z,35.64
2023-05-02T02:50:21.292Z,35.64
2023-05-02T02:51:21.296Z,35.62
2023-05-02T02:52:21.330Z,35.67
2023-05-02T02:53:21.390Z,35.66
2023-05-02T02:54:26.377Z,35.67
2023-05-02T02:55:22.406Z,35.67
2023-05-02T02:56:21.413Z,35.67
2023-05-02T02:57:21.383Z,35.64
2023-05-02T02:58:21.414Z,35.62
2023-05-02T02:59:21.387Z,35.67
2023-05-02T03:00:21.378Z,35.67
2023-05-02T03:01:21.465Z,35.64
2023-05-02T03:02:21.381Z,35.64
2023-05-02T03:03:21.465Z,35.64
2023-05-02T03:04:21.498Z,35.71
2023-05-02T03:05:21.331Z,35.65
2023-05-02T03:06:21.396Z,35.71
2023-05-02T03:07:21.416Z,35.68
2023-05-02T03:08:21.494Z,35.67
2023-05-02T03:09:21.486Z,35.62
2023-05-02T03:10:21.535Z,35.66
2023-05-02T03:11:21.571Z,35.66
2023-05-02T03:12:21.623Z,35.69
2023-05-02T03:13:21.658Z,35.71
2023-05-02T03:14:21.689Z,35.68
2023-05-02T03:15:21.739Z,35.69
2023-05-02T03:16:21.812Z,35.68
2023-05-02T03:17:22.815Z,35.71
2023-05-02T03:18:21.861Z,35.71
2023-05-02T03:19:21.915Z,35.69
2023-05-02T03:20:21.964Z,35.73
2023-05-02T03:21:22.001Z,35.66
2023-05-02T03:22:22.034Z,35.66
2023-05-02T03:23:22.058Z,35.72
2023-05-02T03:24:22.110Z,35.72
2023-05-02T03:25:22.145Z,35.68
2023-05-02T03:26:22.210Z,35.69
2023-05-02T03:27:22.245Z,35.73
2023-05-02T03:28:22.266Z,35.71
2023-05-02T03:29:22.309Z,35.68
2023-05-02T03:30:22.333Z,35.71
2023-05-02T03:31:24.750Z,35.72
2023-05-02T03:32:22.421Z,35.70
2023-05-02T03:33:22.357Z,35.70
2023-05-02T03:34:22.396Z,35.69
2023-05-02T03:35:22.372Z,35.69
2023-05-02T03:36:22.371Z,35.66
2023-05-02T03:37:22.331Z,35.72
2023-05-02T03:38:22.336Z,35.69
2023-05-02T03:39:22.309Z,35.71
2023-05-02T03:40:22.318Z,35.69
2023-05-02T03:41:22.313Z,35.73
2023-05-02T03:42:22.341Z,35.69
2023-05-02T03:43:22.285Z,35.68
2023-05-02T03:44:22.325Z,35.76
2023-05-02T03:45:22.299Z,35.74
2023-05-02T03:46:22.340Z,35.72
2023-05-02T03:47:22.295Z,35.72
2023-05-02T03:48:22.263Z,35.71
2023-05-02T03:49:22.381Z,35.77
2023-05-02T03:50:22.222Z,35.74
2023-05-02T03:51:22.249Z,35.77
2023-05-02T03:52:22.243Z,35.76
2023-05-02T03:53:22.231Z,35.74
2023-05-02T03:54:22.212Z,35.73
2023-05-02T03:55:22.193Z,35.75
2023-05-02T03:56:22.212Z,35.73
2023-05-02T03:57:22.178Z,35.71
2023-05-02T03:58:22.176Z,35.70
2023-05-02T03:59:22.208Z,35.72
2023-05-02T04:00:22.173Z,35.69
2023-05-02T04:01:22.185Z,35.74
2023-05-02T04:02:22.258Z,35.75
2023-05-02T04:03:22.180Z,35.71
2023-05-02T04:04:22.244Z,35.74
2023-05-02T04:05:22.270Z,35.71
2023-05-02T04:06:22.307Z,35.74
2023-05-02T04:07:22.345Z,35.74
2023-05-02T04:08:22.398Z,35.79
2023-05-02T04:09:22.416Z,35.78
2023-05-02T04:10:22.473Z,35.73
2023-05-02T04:11:22.523Z,35.74
2023-05-02T04:12:22.562Z,35.74
2023-05-02T04:13:22.598Z,35.74
2023-05-02T04:14:22.669Z,35.79
2023-05-02T04:15:22.728Z,35.75
2023-05-02T04:16:22.867Z,35.75
2023-05-02T04:17:22.790Z,35.74
2023-05-02T04:18:22.814Z,35.78
2023-05-02T04:19:22.903Z,35.73
2023-05-02T04:20:22.917Z,35.70
2023-05-02T04:21:22.993Z,35.75
2023-05-02T04:22:23.021Z,35.77
2023-05-02T04:23:23.082Z,35.75
2023-05-02T04:24:23.147Z,35.74
2023-05-02T04:25:23.187Z,35.71
2023-05-02T04:26:23.215Z,35.75
2023-05-02T04:27:23.285Z,35.79
2023-05-02T04:28:23.307Z,35.75
2023-05-02T04:29:23.388Z,35.78
2023-05-02T04:30:23.404Z,35.74
2023-05-02T04:31:23.472Z,35.77
2023-05-02T04:32:23.532Z,35.73
2023-05-02T04:33:23.537Z,35.75
2023-05-02T04:34:23.629Z,35.74
2023-05-02T04:35:23.674Z,35.75
2023-05-02T04:36:23.685Z,35.77
2023-05-02T04:37:23.739Z,35.77
2023-05-02T04:38:23.776Z,35.82
2023-05-02T04:39:23.829Z,35.78
2023-05-02T04:40:23.893Z,35.80
2023-05-02T04:41:23.920Z,35.77
2023-05-02T04:42:23.986Z,35.77
2023-05-02T04:43:24.694Z,35.78
2023-05-02T04:44:24.079Z,35.73
2023-05-02T04:45:24.148Z,35.74
2023-05-02T04:46:24.214Z,35.75
2023-05-02T04:47:24.236Z,35.79
2023-05-02T04:48:24.257Z,35.75
2023-05-02T04:49:24.291Z,35.79
2023-05-02T04:50:24.378Z,36.06
2023-05-02T04:51:24.372Z,36.11
2023-05-02T04:52:24.432Z,36.19
2023-05-02T04:53:24.483Z,36.25
2023-05-02T04:54:24.535Z,36.34
2023-05-02T04:55:24.607Z,36.52
2023-05-02T04:56:24.617Z,36.72
2023-05-02T04:57:24.704Z,36.91
2023-05-02T04:58:24.738Z,37.29
2023-05-02T04:59:24.783Z,37.52
2023-05-02T05:00:24.818Z,37.74
2023-05-02T05:01:24.960Z,38.01
2023-05-02T05:02:24.926Z,38.28
2023-05-02T05:03:25.025Z,38.44
2023-05-02T05:04:25.023Z,38.64
2023-05-02T05:05:25.124Z,38.58
2023-05-02T05:06:25.241Z,38.84
2023-05-02T05:07:25.876Z,39.00
2023-05-02T05:08:25.234Z,38.96
2023-05-02T05:09:25.285Z,39.14
2023-05-02T05:10:25.327Z,39.32
2023-05-02T05:11:25.371Z,39.31
2023-05-02T05:12:25.411Z,39.47
2023-05-02T05:13:25.452Z,39.56
2023-05-02T05:14:25.511Z,39.64
2023-05-02T05:15:25.569Z,39.54
2023-05-02T05:16:25.658Z,39.66
2023-05-02T05:17:25.750Z,39.85
2023-05-02T05:18:25.736Z,40.17
2023-05-02T05:19:25.775Z,40.20
2023-05-02T05:20:25.840Z,40.36
2023-05-02T05:21:25.878Z,40.52
2023-05-02T05:22:25.971Z,40.56
2023-05-02T05:23:25.993Z,40.76
2023-05-02T05:24:26.049Z,40.75
2023-05-02T05:25:26.105Z,41.05
2023-05-02T05:26:26.189Z,41.00
2023-05-02T05:27:26.194Z,41.19
2023-05-02T05:28:26.276Z,41.22
2023-05-02T05:29:26.310Z,41.35
2023-05-02T05:30:26.387Z,41.38
2023-05-02T05:31:26.449Z,41.58
2023-05-02T05:32:26.505Z,41.52
2023-05-02T05:33:26.635Z,41.72
2023-05-02T05:34:26.595Z,41.71
2023-05-02T05:35:26.632Z,41.87
2023-05-02T05:36:26.676Z,41.89
2023-05-02T05:37:26.731Z,41.84
2023-05-02T05:38:26.775Z,41.76
2023-05-02T05:39:26.842Z,41.57
2023-05-02T05:40:26.928Z,41.49
2023-05-02T05:41:26.950Z,41.56
2023-05-02T05:42:26.994Z,41.72
2023-05-02T05:43:27.080Z,42.60
2023-05-02T05:44:27.138Z,42.38
2023-05-02T05:45:27.157Z,42.16
2023-05-02T05:46:27.269Z,42.68
2023-05-02T05:47:27.364Z,42.01
2023-05-02T05:48:27.357Z,41.68
2023-05-02T05:49:27.357Z,42.01
2023-05-02T05:50:27.449Z,41.78
2023-05-02T05:51:27.487Z,41.80
2023-05-02T05:52:27.486Z,41.65
2023-05-02T05:53:27.521Z,41.67
2023-05-02T05:54:27.580Z,41.99
2023-05-02T05:55:27.663Z,42.02
2023-05-02T05:56:27.653Z,42.13
2023-05-02T05:57:27.725Z,42.56
2023-05-02T05:58:27.782Z,42.09
2023-05-02T05:59:27.814Z,42.55
2023-05-02T06:00:27.842Z,43.03
2023-05-02T06:01:27.856Z,43.00
2023-05-02T06:02:28.003Z,43.11
2023-05-02T06:03:28.128Z,43.02
2023-05-02T06:04:28.026Z,43.31
2023-05-02T06:05:28.050Z,43.38
2023-05-02T06:06:28.115Z,43.44
2023-05-02T06:07:28.103Z,43.44
2023-05-02T06:08:28.099Z,43.46
2023-05-02T06:09:28.164Z,43.62
2023-05-02T06:10:28.227Z,43.64
2023-05-02T06:11:28.257Z,43.72
2023-05-02T06:12:28.335Z,43.76
2023-05-02T06:13:28.350Z,43.76
2023-05-02T06:14:28.372Z,43.85
2023-05-02T06:15:28.441Z,43.82
2023-05-02T06:16:28.487Z,43.82
2023-05-02T06:17:28.617Z,43.89
2023-05-02T06:18:28.604Z,43.94
2023-05-02T06:19:28.939Z,43.95
2023-05-02T06:20:28.730Z,43.90
2023-05-02T06:21:28.717Z,43.90
2023-05-02T06:22:28.810Z,43.94
2023-05-02T06:23:28.854Z,43.91
2023-05-02T06:24:28.917Z,43.85
2023-05-02T06:25:28.924Z,43.82
2023-05-02T06:26:29.001Z,43.87
2023-05-02T06:27:29.663Z,43.81
2023-05-02T06:28:29.087Z,43.70
2023-05-02T06:29:29.414Z,43.72
2023-05-02T06:30:29.181Z,43.66
2023-05-02T06:31:29.289Z,43.55
2023-05-02T06:32:29.301Z,43.48
2023-05-02T06:33:29.341Z,43.46
2023-05-02T06:34:29.430Z,43.45
2023-05-02T06:35:29.490Z,43.36
2023-05-02T06:36:29.507Z,43.32
2023-05-02T06:37:29.544Z,43.37
2023-05-02T06:38:29.705Z,43.43
2023-05-02T06:39:29.672Z,43.50
2023-05-02T06:40:29.729Z,43.51
2023-05-02T06:41:29.789Z,43.54
2023-05-02T06:42:29.844Z,43.58
2023-05-02T06:43:29.904Z,43.66
2023-05-02T06:44:29.950Z,43.69
2023-05-02T06:45:30.024Z,43.66
2023-05-02T06:46:30.111Z,43.75
2023-05-02T06:47:30.163Z,43.78
2023-05-02T06:48:30.138Z,43.75
2023-05-02T06:49:30.225Z,43.78
2023-05-02T06:50:30.282Z,43.81
2023-05-02T06:51:30.330Z,43.81
2023-05-02T06:52:30.376Z,43.73
2023-05-02T06:53:32.449Z,44.01
2023-05-02T06:54:30.667Z,43.72
2023-05-02T06:55:30.687Z,43.53
2023-05-02T06:56:30.748Z,43.64
2023-05-02T06:57:30.823Z,43.77
2023-05-02T06:58:30.886Z,43.52
2023-05-02T06:59:30.874Z,43.52
2023-05-02T07:00:30.947Z,43.53
2023-05-02T07:01:31.064Z,43.69
2023-05-02T07:02:31.004Z,44.12
2023-05-02T07:03:31.029Z,43.74
2023-05-02T07:04:31.114Z,44.20
2023-05-02T07:05:31.107Z,44.02
2023-05-02T07:06:31.209Z,43.91
2023-05-02T07:07:31.210Z,43.91
2023-05-02T07:08:31.254Z,43.82
2023-05-02T07:09:31.365Z,43.76
2023-05-02T07:10:31.321Z,43.66
2023-05-02T07:11:31.371Z,43.74
2023-05-02T07:12:31.391Z,43.77
2023-05-02T07:13:31.448Z,43.75
2023-05-02T07:14:31.483Z,43.66
2023-05-02T07:15:31.514Z,43.61
2023-05-02T07:16:31.625Z,43.57
2023-05-02T07:17:31.636Z,43.37
2023-05-02T07:18:31.622Z,43.23
2023-05-02T07:19:31.665Z,43.68
2023-05-02T07:20:31.712Z,43.51
2023-05-02T07:21:31.702Z,43.42
2023-05-02T07:22:31.756Z,43.32
2023-05-02T07:23:31.800Z,43.31
2023-05-02T07:24:31.828Z,43.38
2023-05-02T07:25:31.898Z,43.48
2023-05-02T07:26:31.853Z,43.41
2023-05-02T07:27:31.863Z,43.42
2023-05-02T07:28:31.885Z,43.66
2023-05-02T07:29:31.955Z,43.84
2023-05-02T07:30:31.977Z,43.64
2023-05-02T07:31:32.014Z,43.85
2023-05-02T07:32:32.210Z,43.97
2023-05-02T07:33:32.041Z,43.98
2023-05-02T07:34:32.093Z,43.85
2023-05-02T07:35:32.072Z,44.15
2023-05-02T07:36:32.072Z,43.94
2023-05-02T07:37:34.084Z,44.03
2023-05-02T07:38:32.123Z,43.73
2023-05-02T07:39:32.169Z,43.89
2023-05-02T07:40:32.176Z,44.09
2023-05-02T07:41:32.215Z,44.13
2023-05-02T07:42:32.213Z,44.27
2023-05-02T07:43:32.234Z,44.19
2023-05-02T07:44:32.453Z,43.99
2023-05-02T07:45:32.210Z,44.07
2023-05-02T07:46:32.310Z,44.20
2023-05-02T07:47:32.282Z,44.05
2023-05-02T07:48:32.258Z,43.98
2023-05-02T07:49:32.269Z,43.98
2023-05-02T07:50:32.453Z,44.16
2023-05-02T07:51:32.313Z,43.61
2023-05-02T07:52:32.306Z,43.11
2023-05-02T07:53:32.318Z,42.98
2023-05-02T07:54:32.343Z,43.41
2023-05-02T07:55:32.360Z,42.99
2023-05-02T07:56:32.350Z,42.73
2023-05-02T07:57:32.359Z,43.01
2023-05-02T07:58:32.351Z,42.97
2023-05-02T07:59:32.349Z,42.89
2023-05-02T08:00:32.400Z,42.50
2023-05-02T08:01:32.365Z,42.27
2023-05-02T08:02:32.481Z,42.52
2023-05-02T08:03:32.564Z,42.67
2023-05-02T08:04:32.438Z,42.38
2023-05-02T08:05:32.449Z,42.30
2023-05-02T08:06:32.426Z,42.17
2023-05-02T08:07:32.429Z,41.79
2023-05-02T08:08:32.456Z,41.53
2023-05-02T08:09:32.460Z,41.13
2023-05-02T08:10:32.959Z,41.82
2023-05-02T08:11:32.498Z,40.89
2023-05-02T08:12:32.505Z,41.58
2023-05-02T08:13:32.550Z,40.96
2023-05-02T08:14:32.532Z,41.17
2023-05-02T08:15:32.585Z,41.15
2023-05-02T08:16:32.622Z,41.12
2023-05-02T08:17:32.672Z,41.43
2023-05-02T08:18:32.611Z,40.56
2023-05-02T08:19:32.650Z,41.14
2023-05-02T08:20:32.678Z,40.46
2023-05-02T08:21:32.703Z,40.37
2023-05-02T08:22:32.728Z,40.78
2023-05-02T08:23:32.743Z,41.30
2023-05-02T08:24:32.739Z,41.17
2023-05-02T08:25:32.771Z,41.17
2023-05-02T08:26:32.799Z,40.64
2023-05-02T08:27:32.850Z,41.25
2023-05-02T08:28:32.858Z,40.83
2023-05-02T08:29:32.872Z,41.45
2023-05-02T08:30:32.905Z,41.21
2023-05-02T08:31:33.015Z,41.31
2023-05-02T08:32:32.959Z,41.34
2023-05-02T08:33:32.980Z,40.99
2023-05-02T08:34:33.002Z,41.10
2023-05-02T08:35:33.016Z,40.96
2023-05-02T08:36:33.020Z,41.17
2023-05-02T08:37:33.039Z,41.45
2023-05-02T08:38:33.081Z,41.26
2023-05-02T08:39:33.089Z,41.00
2023-05-02T08:40:41.438Z,41.73
2023-05-02T08:41:34.138Z,40.98
2023-05-02T08:42:33.205Z,41.27
2023-05-02T08:43:33.118Z,41.16
2023-05-02T08:44:33.084Z,40.56
2023-05-02T08:45:33.487Z,40.21
2023-05-02T08:46:33.152Z,40.78
2023-05-02T08:47:33.174Z,40.91
2023-05-02T08:48:33.084Z,40.88
2023-05-02T08:49:33.074Z,41.04
2023-05-02T08:50:33.470Z,41.14
2023-05-02T08:51:33.084Z,41.12
2023-05-02T08:52:33.037Z,41.43
2023-05-02T08:53:33.057Z,41.70
2023-05-02T08:54:33.032Z,41.68
2023-05-02T08:55:33.036Z,42.85
2023-05-02T08:56:33.070Z,41.28
2023-05-02T08:57:33.215Z,41.62
2023-05-02T08:58:33.102Z,41.72
2023-05-02T08:59:33.136Z,41.81
2023-05-02T09:00:33.180Z,41.20
2023-05-02T09:01:33.313Z,41.82
2023-05-02T09:02:33.237Z,40.75
2023-05-02T09:03:33.247Z,41.61
2023-05-02T09:04:33.334Z,41.48
2023-05-02T09:05:33.280Z,41.68
2023-05-02T09:06:33.297Z,41.91
2023-05-02T09:07:33.299Z,41.97
2023-05-02T09:08:33.339Z,41.74
2023-05-02T09:09:33.352Z,41.58
2023-05-02T09:10:33.500Z,41.47
2023-05-02T09:11:33.368Z,40.95
2023-05-02T09:12:33.402Z,41.32
2023-05-02T09:13:33.395Z,41.55
2023-05-02T09:14:33.421Z,41.49
2023-05-02T09:15:33.447Z,41.62
2023-05-02T09:16:33.496Z,41.53
2023-05-02T09:17:33.502Z,41.24
2023-05-02T09:18:33.463Z,41.37
2023-05-02T09:19:33.484Z,41.39
2023-05-02T09:20:33.506Z,40.81
2023-05-02T09:21:33.499Z,41.14
2023-05-02T09:22:33.536Z,40.98
2023-05-02T09:23:33.535Z,41.18
2023-05-02T09:24:33.569Z,41.57
2023-05-02T09:25:33.585Z,41.58
2023-05-02T09:26:33.586Z,41.76
2023-05-02T09:27:33.603Z,41.75
2023-05-02T09:28:33.592Z,41.98
2023-05-02T09:29:33.653Z,42.08
2023-05-02T09:30:33.706Z,41.99
2023-05-02T09:32:33.645Z,42.13
2023-05-02T09:33:33.596Z,41.86
2023-05-02T09:34:33.600Z,41.84
2023-05-02T09:35:33.625Z,41.85
2023-05-02T09:36:33.620Z,41.30
2023-05-02T09:37:33.667Z,41.69
2023-05-02T09:38:33.599Z,41.40
2023-05-02T09:39:33.584Z,41.63
2023-05-02T09:40:33.989Z,41.33
2023-05-02T09:41:33.543Z,41.29
2023-05-02T09:42:33.559Z,40.62
2023-05-02T09:43:33.544Z,40.09
2023-05-02T09:44:34.117Z,40.68
2023-05-02T09:45:34.005Z,40.82
2023-05-02T09:46:33.588Z,41.20
2023-05-02T09:47:33.548Z,39.68
2023-05-02T09:48:33.479Z,39.80
2023-05-02T09:49:33.478Z,39.68
2023-05-02T09:50:34.807Z,40.17
2023-05-02T09:51:33.470Z,40.28
2023-05-02T09:52:33.478Z,40.82
2023-05-02T09:53:33.459Z,41.41
2023-05-02T09:54:33.466Z,40.47
2023-05-02T09:55:33.479Z,41.19
2023-05-02T09:56:33.437Z,40.97
2023-05-02T09:57:33.445Z,40.04
2023-05-02T09:58:33.440Z,40.13
2023-05-02T09:59:33.454Z,39.60
2023-05-02T10:00:33.439Z,41.11
2023-05-02T10:01:33.453Z,41.11
2023-05-02T10:02:33.539Z,40.80
2023-05-02T10:03:33.559Z,41.01
2023-05-02T10:04:33.450Z,41.25
2023-05-02T10:05:33.443Z,41.42
2023-05-02T10:06:33.434Z,41.37
2023-05-02T10:07:33.370Z,40.89
2023-05-02T10:08:33.355Z,40.69
2023-05-02T10:09:33.379Z,40.64
2023-05-02T10:10:33.360Z,41.37
2023-05-02T10:11:33.438Z,40.99
2023-05-02T10:12:33.340Z,40.88
2023-05-02T10:13:33.445Z,40.70
2023-05-02T10:14:33.319Z,39.89
2023-05-02T10:15:33.367Z,40.23
2023-05-02T10:16:33.465Z,40.64
2023-05-02T10:17:33.347Z,40.63
2023-05-02T10:18:33.368Z,40.56
2023-05-02T10:19:33.359Z,40.68
2023-05-02T10:20:33.367Z,40.71
2023-05-02T10:21:33.390Z,41.19
2023-05-02T10:22:33.357Z,41.77
2023-05-02T10:23:33.360Z,41.44
2023-05-02T10:24:33.401Z,41.56
2023-05-02T10:25:33.460Z,41.51
2023-05-02T10:26:33.463Z,41.59
2023-05-02T10:27:33.416Z,41.81
2023-05-02T10:28:33.441Z,41.80
2023-05-02T10:29:33.467Z,41.68
2023-05-02T10:30:33.954Z,41.85
2023-05-02T10:31:33.449Z,42.61
2023-05-02T10:32:33.457Z,42.41
2023-05-02T10:33:33.452Z,42.18
2023-05-02T10:34:33.494Z,42.43
2023-05-02T10:35:33.523Z,41.90
2023-05-02T10:36:33.609Z,42.18
2023-05-02T10:37:33.559Z,42.15
2023-05-02T10:38:33.611Z,41.98
2023-05-02T10:39:34.522Z,42.17
2023-05-02T10:40:34.009Z,42.14
2023-05-02T10:41:33.654Z,42.44
2023-05-02T10:42:33.689Z,42.04
2023-05-02T10:43:33.733Z,42.14
2023-05-02T10:44:33.766Z,41.92
2023-05-02T10:45:33.842Z,41.70
2023-05-02T10:46:33.982Z,41.46
2023-05-02T10:47:34.001Z,41.39
2023-05-02T10:48:34.017Z,41.47
2023-05-02T10:49:34.083Z,41.09
2023-05-02T10:50:34.179Z,41.49
2023-05-02T10:51:34.218Z,41.31
2023-05-02T10:52:34.395Z,41.47
2023-05-02T10:53:34.343Z,41.32
2023-05-02T10:54:34.412Z,41.22
2023-05-02T10:55:34.476Z,41.20
2023-05-02T10:56:34.524Z,41.13
2023-05-02T10:57:34.615Z,41.09
2023-05-02T10:58:34.635Z,40.98
2023-05-02T10:59:34.786Z,40.99
2023-05-02T11:00:34.889Z,40.96
2023-05-02T11:01:34.901Z,40.89
2023-05-02T11:02:35.073Z,40.81
2023-05-02T11:03:35.025Z,40.89
2023-05-02T11:04:35.029Z,40.96
2023-05-02T11:05:35.112Z,40.89
2023-05-02T11:06:35.238Z,41.03
2023-05-02T11:07:35.186Z,40.77
2023-05-02T11:08:35.274Z,40.96
2023-05-02T11:09:35.436Z,40.88
2023-05-02T11:10:35.396Z,40.81
2023-05-02T11:11:35.456Z,40.94
2023-05-02T11:12:35.562Z,39.58
2023-05-02T11:13:35.666Z,39.70
2023-05-02T11:14:35.632Z,39.54
2023-05-02T11:15:35.638Z,39.21
2023-05-02T11:16:35.735Z,39.41
2023-05-02T11:17:35.712Z,39.03
2023-05-02T11:18:35.699Z,39.23
2023-05-02T11:19:35.721Z,39.47
2023-05-02T11:20:35.708Z,39.52
2023-05-02T11:21:35.698Z,39.42
2023-05-02T11:22:35.689Z,39.76
2023-05-02T11:23:35.740Z,39.76
2023-05-02T11:24:35.646Z,39.61
2023-05-02T11:25:35.649Z,39.45
2023-05-02T11:26:35.662Z,39.60
2023-05-02T11:27:35.677Z,39.55
2023-05-02T11:28:35.716Z,39.66
2023-05-02T11:29:35.710Z,39.63
2023-05-02T11:30:36.019Z,39.66
2023-05-02T11:31:35.815Z,39.88
2023-05-02T11:32:35.883Z,39.93
2023-05-02T11:33:35.886Z,39.91
2023-05-02T11:34:35.954Z,39.95
2023-05-02T11:35:36.030Z,39.92
2023-05-02T11:36:36.111Z,39.79
2023-05-02T11:37:36.062Z,39.78
2023-05-02T11:38:36.162Z,39.97
2023-05-02T11:39:36.195Z,39.94
2023-05-02T11:40:36.209Z,39.97
2023-05-02T11:41:36.206Z,39.60
2023-05-02T11:42:36.235Z,39.80
2023-05-02T11:43:36.205Z,40.19
2023-05-02T11:44:36.222Z,40.17
2023-05-02T11:45:36.244Z,40.06
2023-05-02T11:46:36.220Z,40.03
2023-05-02T11:47:36.300Z,40.00
2023-05-02T11:48:36.218Z,39.77
2023-05-02T11:49:36.217Z,39.78
2023-05-02T11:50:36.804Z,39.77
2023-05-02T11:51:36.234Z,39.94
2023-05-02T11:52:36.232Z,39.65
2023-05-02T11:53:36.272Z,39.90
2023-05-02T11:54:36.281Z,39.63
2023-05-02T11:55:36.270Z,40.05
2023-05-02T11:56:36.272Z,39.94
2023-05-02T11:57:36.320Z,39.78
2023-05-02T11:58:36.315Z,39.49
2023-05-02T11:59:36.320Z,39.68
2023-05-02T12:00:36.361Z,39.81
2023-05-02T12:01:36.380Z,39.85
2023-05-02T12:02:36.445Z,39.69
2023-05-02T12:03:36.560Z,39.76
2023-05-02T12:04:36.408Z,39.80
2023-05-02T12:05:36.461Z,39.49
2023-05-02T12:06:36.514Z,39.38
2023-05-02T12:07:36.500Z,39.52
2023-05-02T12:08:36.519Z,39.61
2023-05-02T12:09:36.532Z,39.67
2023-05-02T12:10:36.520Z,39.51
2023-05-02T12:11:36.548Z,39.38
2023-05-02T12:12:36.586Z,39.32
2023-05-02T12:13:36.588Z,39.28
2023-05-02T12:14:36.611Z,39.34
2023-05-02T12:15:36.656Z,39.38
2023-05-02T12:16:36.719Z,39.38
2023-05-02T12:17:36.683Z,39.35
2023-05-02T12:18:36.685Z,39.38
2023-05-02T12:19:36.694Z,39.37
2023-05-02T12:20:36.720Z,39.45
2023-05-02T12:21:36.750Z,39.53
2023-05-02T12:22:36.764Z,39.52
2023-05-02T12:23:37.526Z,39.43
2023-05-02T12:24:36.802Z,39.29
2023-05-02T12:25:36.793Z,39.48
2023-05-02T12:26:36.787Z,39.52
2023-05-02T12:27:36.838Z,39.56
2023-05-02T12:28:36.822Z,39.58
2023-05-02T12:29:36.840Z,39.56
2023-05-02T12:30:36.858Z,39.56
2023-05-02T12:31:36.948Z,39.61
2023-05-02T12:32:36.943Z,39.69
2023-05-02T12:33:36.949Z,39.65
2023-05-02T12:34:36.953Z,39.64
2023-05-02T12:35:36.941Z,39.69
2023-05-02T12:36:36.961Z,39.70
2023-05-02T12:37:36.983Z,39.66
2023-05-02T12:38:36.987Z,39.64
2023-05-02T12:39:37.021Z,39.54
2023-05-02T12:40:37.083Z,39.58
2023-05-02T12:41:37.145Z,39.53
2023-05-02T12:42:37.050Z,39.62
2023-05-02T12:43:37.228Z,39.65
2023-05-02T12:44:37.133Z,39.73
2023-05-02T12:45:37.134Z,39.75
2023-05-02T12:46:37.224Z,39.56
2023-05-02T12:47:37.198Z,39.46
2023-05-02T12:48:37.187Z,39.35
2023-05-02T12:49:37.210Z,39.44
2023-05-02T12:50:37.235Z,39.62
2023-05-02T12:51:37.249Z,39.69
2023-05-02T12:52:37.265Z,39.76
2023-05-02T12:53:37.278Z,39.65